Time;durP1;ratioP1;P1;durP2;ratioP2;P2;SDS_P1;SDS_P2;PMS_P1;PMS_P2;Temp;Humidity;BMP_temperature;BMP_pressure;BME280_temperature;BME280_humidity;BME280_pressure;Samples;Min_cycle;Max_cycle;Signal;HPM_P1;HPM_P2
2021/12/08 00:09:19;;;;;;;11.60;8.50;;;;;;;-4.81;76.00;99346.34;417436;1313;128478;-59
2021/12/08 00:19:27;;;;;;;11.00;8.20;;;;;;;-4.81;76.25;99339.51;430553;1313;141463;-59
2021/12/08 00:29:33;;;;;;;10.50;7.50;;;;;;;-4.93;76.19;99344.35;424396;1310;141964;-58
2021/12/08 00:39:39;;;;;;;10.30;7.40;;;;;;;-5.08;76.04;99345.10;424901;1312;141972;-58
2021/12/08 00:49:47;;;;;;;11.20;8.30;;;;;;;-5.26;76.13;99339.54;417403;1314;141760;-58
2021/12/08 00:59:52;;;;;;;11.20;9.50;;;;;;;-5.32;76.31;99333.59;432149;1313;143121;-59
2021/12/08 01:10:06;;;;;;;10.70;7.40;;;;;;;-5.26;76.37;99333.23;433240;1313;141300;-59
2021/12/08 01:20:32;;;;;;;8.20;6.70;;;;;;;-5.25;76.51;99315.13;434518;1314;141871;-59
2021/12/08 01:30:40;;;;;;;10.10;7.00;;;;;;;-5.23;76.38;99306.41;433612;1313;141775;-59
2021/12/08 01:40:46;;;;;;;10.90;7.10;;;;;;;-5.31;76.39;99298.60;422691;1312;141336;-60
2021/12/08 01:50:52;;;;;;;;;;;;;;;-5.46;76.30;99288.07;421962;1314;142134;-59
2021/12/08 02:01:01;;;;;;;12.10;8.20;;;;;;;-5.55;76.68;99285.39;432915;1313;127678;-60
2021/12/08 02:11:09;;;;;;;10.10;6.90;;;;;;;-5.61;76.68;99286.25;432125;1315;141492;-59
2021/12/08 02:21:25;;;;;;;13.10;8.30;;;;;;;-5.67;77.02;99289.17;433899;1314;141527;-60
2021/12/08 02:31:37;;;;;;;12.70;9.80;;;;;;;-5.63;77.28;99278.75;432449;1312;142493;-60
2021/12/08 02:52:09;;;;;;;12.60;10.70;;;;;;;-5.65;77.56;99264.27;425356;1312;141631;-59
2021/12/08 03:02:16;;;;;;;12.80;9.60;;;;;;;-5.66;77.71;99247.38;433256;1314;143111;-59
2021/12/08 03:12:30;;;;;;;16.20;10.80;;;;;;;-5.79;77.76;99253.73;433473;1314;142179;-60
2021/12/08 03:22:42;;;;;;;12.90;10.20;;;;;;;-5.76;77.98;99246.73;426236;1313;142173;-60
2021/12/08 03:32:54;;;;;;;16.30;11.30;;;;;;;-5.70;77.95;99225.73;431166;1313;142632;-60
2021/12/08 03:43:00;;;;;;;16.80;12.30;;;;;;;-5.66;78.11;99204.40;433911;1313;265478;-59
2021/12/08 03:53:05;;;;;;;;;;;;;;;-5.67;78.16;99202.18;431740;1315;144005;-59
2021/12/08 04:03:18;;;;;;;16.40;11.50;;;;;;;-5.70;78.21;99212.61;434252;1315;129829;-61
2021/12/08 04:13:28;;;;;;;15.60;11.90;;;;;;;-5.73;78.31;99213.46;428837;1313;142391;-60
2021/12/08 04:23:38;;;;;;;18.30;11.80;;;;;;;-5.80;78.37;99187.23;431222;1313;141851;-60
2021/12/08 04:33:45;;;;;;;19.00;13.70;;;;;;;-5.93;78.30;99176.20;418708;1312;142121;-59
2021/12/08 04:44:01;;;;;;;19.80;14.70;;;;;;;-6.12;78.56;99166.74;418085;1314;142275;-59
2021/12/08 05:04:48;;;;;;;19.70;13.30;;;;;;;-6.32;78.96;99179.75;434578;1312;143007;-59
2021/12/08 05:14:57;;;;;;;22.50;14.30;;;;;;;-6.43;79.09;99186.08;429999;1312;143466;-60
2021/12/08 05:25:09;;;;;;;18.40;11.60;;;;;;;-6.49;79.27;99193.91;432263;1314;142977;-60
2021/12/08 05:35:18;;;;;;;20.00;14.30;;;;;;;-6.44;79.37;99189.14;433465;1313;143616;-59
2021/12/08 05:45:25;;;;;;;20.90;14.30;;;;;;;-6.44;79.64;99186.58;433010;1315;144496;-60
2021/12/08 05:55:31;;;;;;;25.20;18.40;;;;;;;-6.50;79.86;99180.64;428470;1312;142928;-60
2021/12/08 06:05:38;;;;;;;28.20;17.80;;;;;;;-6.43;80.16;99175.34;423069;1312;142186;-59
2021/12/08 06:15:47;;;;;;;25.40;16.90;;;;;;;-6.38;80.42;99170.22;433906;1313;142832;-58
2021/12/08 06:25:53;;;;;;;26.40;15.60;;;;;;;-6.31;80.61;99159.98;434587;1313;142038;-61
2021/12/08 06:36:05;;;;;;;28.90;17.10;;;;;;;-6.29;80.74;99164.74;433806;1314;143816;-59
2021/12/08 06:46:11;;;;;;;31.20;19.30;;;;;;;-6.27;80.89;99162.87;431534;1313;143513;-60
2021/12/08 06:56:21;;;;;;;30.60;18.60;;;;;;;-6.35;80.75;99161.35;427532;1312;142028;-59
2021/12/08 07:06:42;;;;;;;40.10;22.60;;;;;;;-6.47;80.90;99176.38;433634;1313;143254;-60
2021/12/08 07:16:53;;;;;;;47.20;25.60;;;;;;;-6.48;81.09;99173.31;431769;1313;143088;-61
2021/12/08 07:27:04;;;;;;;48.70;28.60;;;;;;;-6.48;81.17;99168.70;422715;1312;142766;-60
2021/12/08 07:37:14;;;;;;;47.20;23.90;;;;;;;-6.43;81.24;99178.41;429963;1312;142414;-60
2021/12/08 07:47:26;;;;;;;41.00;23.80;;;;;;;-6.38;81.25;99165.62;421289;1312;141683;-60
2021/12/08 07:57:34;;;;;;;39.80;22.40;;;;;;;-6.28;81.17;99157.94;432393;1312;145709;-59
2021/12/08 08:07:42;;;;;;;50.40;28.10;;;;;;;-6.18;80.99;99157.23;431926;1312;142711;-63
2021/12/08 08:17:53;;;;;;;37.10;23.30;;;;;;;-6.00;80.82;99155.27;432774;1312;141772;-64
2021/12/08 08:27:59;;;;;;;45.90;26.20;;;;;;;-5.90;80.64;99154.37;420401;1312;197597;-69
2021/12/08 08:38:11;;;;;;;48.30;24.80;;;;;;;-5.87;80.51;99156.41;433084;1313;142010;-68
2021/12/08 08:48:20;;;;;;;41.80;24.70;;;;;;;-5.80;80.53;99150.06;425937;1313;141808;-68
2021/12/08 08:58:41;;;;;;;38.00;22.60;;;;;;;-5.67;80.28;99167.73;428064;1312;142523;-61
2021/12/08 09:08:51;;;;;;;;;;;;;;;-5.58;80.17;99161.05;423160;1312;142209;-58
2021/12/08 09:19:04;;;;;;;30.90;17.20;;;;;;;-5.52;79.68;99160.85;426175;1311;130325;-58
2021/12/08 09:29:14;;;;;;;29.70;17.00;;;;;;;-5.60;79.41;99159.52;423806;1312;141117;-61
2021/12/08 09:39:25;;;;;;;33.10;18.90;;;;;;;-5.66;79.50;99155.64;427112;1313;142607;-60
2021/12/08 09:49:32;;;;;;;30.40;19.20;;;;;;;-5.64;79.53;99153.39;434213;1309;142218;-61
2021/12/08 09:59:45;;;;;;;30.30;16.30;;;;;;;-5.55;79.39;99144.48;434211;1312;142933;-62
2021/12/08 10:09:52;;;;;;;26.10;15.70;;;;;;;-5.56;79.19;99150.29;427304;1313;143294;-74
2021/12/08 10:20:17;;;;;;;28.30;16.60;;;;;;;-5.66;79.16;99124.25;434283;1311;141947;-66
2021/12/08 10:30:26;;;;;;;29.90;19.30;;;;;;;-5.61;79.22;99108.36;432354;1314;142122;-65
2021/12/08 10:40:32;;;;;;;33.10;20.20;;;;;;;-5.49;79.15;99096.86;434133;1313;142240;-63
2021/12/08 11:01:27;;;;;;;25.40;16.40;;;;;;;-5.34;78.68;99094.71;432831;1312;141836;-67
2021/12/08 11:11:39;;;;;;;27.50;16.00;;;;;;;-5.35;78.44;99062.64;431607;1313;141798;-61
2021/12/08 11:21:48;;;;;;;34.40;19.60;;;;;;;-5.25;78.15;99054.54;433460;1313;142203;-68
2021/12/08 11:31:59;;;;;;;27.80;16.40;;;;;;;-5.11;77.89;99039.23;421306;1313;142446;-69
2021/12/08 11:42:08;;;;;;;23.60;14.70;;;;;;;-4.94;77.02;99045.39;433189;1312;344575;-68
2021/12/08 11:52:19;;;;;;;30.20;18.10;;;;;;;-4.97;76.79;99034.84;433633;1314;141754;-66
2021/12/08 12:02:29;;;;;;;31.30;19.70;;;;;;;-5.02;76.65;99031.81;432184;1313;141939;-60
2021/12/08 12:12:37;;;;;;;34.70;19.70;;;;;;;-5.19;76.56;99023.95;431444;1314;142737;-59
2021/12/08 12:22:54;;;;;;;27.60;18.80;;;;;;;-5.24;76.91;99008.80;434085;1312;141361;-65
2021/12/08 12:33:00;;;;;;;30.10;17.00;;;;;;;-5.34;76.85;99000.35;423514;1313;144462;-58
2021/12/08 12:43:08;;;;;;;32.60;18.50;;;;;;;-5.35;77.20;98991.49;429849;1314;142773;-63
2021/12/08 12:53:43;;;;;;;28.40;18.30;;;;;;;-5.39;77.49;98992.04;429582;1313;141656;-64
2021/12/08 13:03:53;;;;;;;27.40;16.30;;;;;;;-5.43;77.69;99002.48;420860;1313;141780;-68
2021/12/08 13:13:59;;;;;;;28.00;16.60;;;;;;;-5.45;78.15;98999.08;426515;1313;142233;-59
2021/12/08 13:24:30;;;;;;;28.80;17.50;;;;;;;-5.46;78.41;99013.09;416821;1313;142242;-68
2021/12/08 13:34:38;;;;;;;28.60;18.00;;;;;;;-5.53;78.78;99017.05;434199;1310;203458;-63
2021/12/08 13:44:54;;;;;;;29.50;19.10;;;;;;;-5.52;78.83;99026.08;434336;1309;142231;-68
2021/12/08 13:55:20;;;;;;;25.10;16.70;;;;;;;-5.54;78.95;99025.42;434368;1313;142721;-64
2021/12/08 14:05:29;;;;;;;36.30;20.60;;;;;;;-5.51;79.10;99027.09;434138;1312;141657;-63
2021/12/08 14:15:42;;;;;;;30.80;18.30;;;;;;;-5.50;79.23;99026.59;433025;1313;142381;-65
2021/12/08 14:25:52;;;;;;;37.90;21.80;;;;;;;-5.50;79.41;99023.34;429142;1313;142184;-62
2021/12/08 14:36:02;;;;;;;31.90;20.00;;;;;;;-5.45;79.67;99016.48;433751;1308;143613;-63
2021/12/08 14:46:15;;;;;;;34.10;19.60;;;;;;;-5.45;79.83;99021.42;433244;1312;142140;-57
2021/12/08 14:56:23;;;;;;;33.20;20.70;;;;;;;-5.42;80.11;99015.43;434453;1309;141713;-60
2021/12/08 15:06:29;;;;;;;31.20;18.20;;;;;;;-5.37;80.24;99016.77;433632;1309;143155;-61
2021/12/08 15:16:35;;;;;;;30.00;15.50;;;;;;;-5.40;80.14;99013.20;432890;1312;142642;-65
2021/12/08 15:26:43;;;;;;;27.20;16.10;;;;;;;-5.43;80.36;99005.55;433164;1312;141567;-60
2021/12/08 15:37:01;;;;;;;24.50;16.10;;;;;;;-5.44;80.42;99002.15;434366;1310;142792;-55
2021/12/08 15:47:10;;;;;;;27.50;16.40;;;;;;;-5.43;80.48;98990.38;419919;1313;142244;-55
2021/12/08 15:57:21;;;;;;;20.20;14.20;;;;;;;-5.48;80.54;98994.51;433689;1313;142341;-55
2021/12/08 16:07:29;;;;;;;22.30;13.60;;;;;;;-5.52;80.57;98984.14;434438;1312;144442;-53
2021/12/08 16:17:37;;;;;;;21.90;15.00;;;;;;;-5.52;80.55;98990.44;434451;1311;142686;-56
2021/12/08 16:27:45;;;;;;;21.30;14.40;;;;;;;-5.52;80.58;98992.66;432302;1312;142766;-56
2021/12/08 16:37:50;;;;;;;22.60;15.10;;;;;;;-5.51;80.60;98980.70;434532;1312;141959;-61
2021/12/08 16:47:57;;;;;;;28.40;15.10;;;;;;;-5.51;80.66;98965.17;430988;1315;141774;-60
2021/12/08 16:58:07;;;;;;;27.50;16.10;;;;;;;-5.48;80.63;98959.88;433779;1309;183107;-60
2021/12/08 17:08:14;;;;;;;24.20;14.80;;;;;;;-5.46;80.67;98943.31;433062;1312;142643;-61
2021/12/08 17:18:20;;;;;;;22.20;11.90;;;;;;;-5.47;80.78;98949.30;418761;1310;143314;-61
2021/12/08 17:28:28;;;;;;;28.10;15.80;;;;;;;-5.51;80.96;98956.31;434320;1311;142789;-60
2021/12/08 17:38:35;;;;;;;26.10;15.80;;;;;;;-5.56;81.02;98942.21;434006;1312;145521;-65
2021/12/08 17:48:43;;;;;;;28.50;17.60;;;;;;;-5.56;81.14;98934.86;430530;1314;142834;-60
2021/12/08 17:58:49;;;;;;;31.70;21.30;;;;;;;-5.51;81.05;98929.53;433600;1314;141664;-60
2021/12/08 18:09:09;;;;;;;26.90;17.80;;;;;;;-5.51;81.02;98940.98;423815;1312;142161;-60
2021/12/08 18:19:16;;;;;;;29.20;17.40;;;;;;;-5.56;81.09;98943.74;434444;1313;142903;-61
2021/12/08 18:29:22;;;;;;;39.80;22.20;;;;;;;-5.55;81.11;98939.80;434553;1309;143127;-61
2021/12/08 18:39:45;;;;;;;35.00;21.00;;;;;;;-5.51;80.97;98936.86;432554;1312;142567;-61
2021/12/08 18:49:51;;;;;;;37.00;21.60;;;;;;;-5.45;81.08;98936.31;431178;1310;142533;-61
2021/12/08 18:59:58;;;;;;;;;;;;;;;-5.42;80.94;98934.06;433485;1313;143077;-60
2021/12/08 19:10:06;;;;;;;36.90;22.30;;;;;;;-5.46;80.91;98931.20;433441;1313;128655;-61
2021/12/08 19:20:16;;;;;;;38.00;22.90;;;;;;;-5.46;80.95;98933.42;432976;1313;141534;-61
2021/12/08 19:30:24;;;;;;;36.70;20.00;;;;;;;-5.44;80.95;98933.23;432048;1312;142774;-61
2021/12/08 19:40:30;;;;;;;36.10;21.90;;;;;;;-5.44;81.00;98914.30;434513;1312;195378;-64
2021/12/08 19:50:39;;;;;;;36.40;19.70;;;;;;;-5.45;80.97;98903.40;434001;1312;142563;-61
2021/12/08 20:00:47;;;;;;;31.30;19.10;;;;;;;-5.41;81.14;98893.96;433820;1314;144053;-61
2021/12/08 20:10:53;;;;;;;33.80;19.10;;;;;;;-5.41;81.08;98908.65;434425;1310;142057;-61
2021/12/08 20:21:04;;;;;;;33.50;21.00;;;;;;;-5.40;81.30;98913.40;433678;1312;142691;-61
2021/12/08 20:31:12;;;;;;;32.80;19.10;;;;;;;-5.38;81.36;98914.73;432377;1315;143659;-61
2021/12/08 20:41:21;;;;;;;36.50;20.20;;;;;;;-5.35;81.41;98912.67;419598;1316;142220;-61
2021/12/08 20:51:28;;;;;;;33.40;22.90;;;;;;;-5.36;81.62;98889.81;432145;1317;143357;-61
2021/12/08 21:01:39;;;;;;;41.60;24.30;;;;;;;-5.33;81.57;98874.26;434624;1315;142123;-61
2021/12/08 21:11:46;;;;;;;35.20;19.90;;;;;;;-5.27;81.64;98857.13;433552;1312;143008;-61
2021/12/08 21:21:53;;;;;;;32.60;20.10;;;;;;;-5.26;81.68;98851.65;433209;1318;142137;-61
2021/12/08 21:31:59;;;;;;;34.50;20.40;;;;;;;-5.25;81.78;98855.58;431201;1316;141567;-60
2021/12/08 21:42:06;;;;;;;37.80;20.20;;;;;;;-5.27;81.86;98847.56;422960;1314;141963;-63
2021/12/08 21:52:12;;;;;;;34.20;22.70;;;;;;;-5.29;81.97;98834.80;432971;1310;142698;-63
2021/12/08 22:02:20;;;;;;;33.80;21.60;;;;;;;-5.25;82.00;98826.05;425162;1313;141993;-68
2021/12/08 22:12:26;;;;;;;40.20;23.00;;;;;;;-5.24;82.09;98830.80;423417;1313;142518;-65
2021/12/08 22:22:30;;;;;;;;;;;;;;;-5.21;82.13;98837.94;434174;1313;146115;-65
2021/12/08 22:32:37;;;;;;;45.40;25.40;;;;;;;-5.19;82.13;98838.27;433423;1313;129143;-60
2021/12/08 22:42:44;;;;;;;43.30;27.10;;;;;;;-5.16;82.06;98834.81;433788;1313;142417;-60
2021/12/08 22:52:51;;;;;;;44.30;25.70;;;;;;;-5.12;82.18;98841.42;430557;1313;142160;-61
2021/12/08 23:02:59;;;;;;;40.50;24.30;;;;;;;-5.10;82.12;98836.10;427764;1312;142680;-64
2021/12/08 23:13:08;;;;;;;43.80;24.00;;;;;;;-5.10;82.31;98826.20;428911;1313;142530;-62
2021/12/08 23:23:14;;;;;;;43.20;24.50;;;;;;;-5.04;82.19;98832.96;433418;1313;143119;-63
2021/12/08 23:33:21;;;;;;;40.20;25.30;;;;;;;-4.99;82.24;98837.51;421392;1313;142798;-62
2021/12/08 23:43:29;;;;;;;36.20;22.20;;;;;;;-4.96;82.13;98805.89;430553;1313;144659;-63
2021/12/08 23:53:35;;;;;;;35.80;20.70;;;;;;;-4.94;82.21;98806.20;434140;1313;142614;-63
